This is the latest recevied weather packets stored in our database for station/object M0TJX-1. If no packets are shown the sender has not sent any weather packets the latest 10 day(s).
| Time | Temp. | Humidity | Pressure | Rain* | Wind** | Luminosity | Snow |
|---|---|---|---|---|---|---|---|
| 1777287509 | 21.11° C | 46% | 1025.1 hPa | 0 mm | - | - | - |
| 1777286609 | 21.11° C | 46% | 1024.9 hPa | 0 mm | - | - | - |
| 1777285709 | 20.56° C | 48% | 1024.9 hPa | 0 mm | - | - | - |
| 1777284809 | 20.56° C | 48% | 1024.9 hPa | 0 mm | - | - | - |
| 1777283909 | 20° C | 50% | 1024.8 hPa | 0 mm | - | - | - |
| 1777283009 | 19.44° C | 51% | 1025.1 hPa | 0 mm | - | - | - |
| 1777282109 | 18.89° C | 53% | 1025.1 hPa | 0 mm | - | - | - |
| 1777281209 | 17.78° C | 55% | 1025.2 hPa | 0 mm | - | - | - |
| 1777280309 | 16.67° C | 59% | 1025.1 hPa | 0 mm | - | - | - |
| 1777279409 | 16.11° C | 59% | 1025.2 hPa | 0 mm | - | - | - |
| 1777278509 | 14.44° C | 66% | 1025 hPa | 0 mm | - | - | - |
| 1777277609 | 13.33° C | 71% | 1025.1 hPa | 0 mm | - | - | - |
| 1777276709 | 12.78° C | 68% | 1025 hPa | 0 mm | - | - | - |
| 1777275809 | 11.67° C | 72% | 1024.9 hPa | 0 mm | - | - | - |
| 1777274909 | 11.11° C | 77% | 1025 hPa | 0 mm | - | - | - |
| 1777274009 | 9.44° C | 81% | 1025.2 hPa | 0 mm | - | - | - |
| 1777273109 | 8.33° C | 85% | 1025.1 hPa | 0 mm | - | - | - |
| 1777272209 | 7.78° C | 86% | 1024.9 hPa | 0 mm | - | - | - |
| 1777271309 | 7.22° C | 83% | 1024.8 hPa | 0 mm | - | - | - |
| 1777270409 | 6.67° C | 81% | 1024.7 hPa | 0 mm | - | - | - |
| 1777269509 | 6.67° C | 80% | 1024.7 hPa | 0 mm | - | - | - |
| 1777268609 | 6.67° C | 80% | 1024.7 hPa | 0 mm | - | - | - |
| 1777267709 | 6.67° C | 79% | 1024.4 hPa | 0 mm | - | - | - |
| 1777266809 | 6.67° C | 79% | 1024.4 hPa | 0 mm | - | - | - |
| 1777265909 | 7.22° C | 79% | 1024.5 hPa | 0 mm | - | - | - |
* Rain latest hour (hover to see other rain measurements)
** Current wind speed in m/s (hover to see current wind gust speed)